KRIV

March ARB Airport

Riverside, California, USA
METAR KRIV 160558Z AUTO 00000KT 10SM CLR 22/16 A2998 RMK AO2 SLP139 T02220164 10319 20222 52014
Observed Flight Rules
Aug-16 @ 05:58 UTC (18 minutes ago) Visual Flight Rules
Visibility Clouds
10 miles
  • Clear skies
Temperatures Readings
Current 22°C / 72°F
Dewpoint 16°C / 61°F
Humidity 69%
Altimeter 29.98" Hg
Pressure 1013.9 hPa
Elevation 469
METAR KRIV 160558Z AUTO 00000KT 10SM CLR 22/16 A2998 RMK AO2 SLP139 T02220164 10319 20222 52014
Observed Flight Rules
Aug-16 @ 05:58 UTC
(18 minutes ago)
VFR
Clouds
  • Clear skies
Temperature Dewpoint
22°C / 72°F 16°C / 61°F
Humidity Altimeter Pressure
69% 29.98" Hg 1013.9 hPa